createdAt,value
2019-03-08T00:01:08.081Z,11.50
2019-03-08T00:03:37.529Z,11.50
2019-03-08T00:06:07.032Z,11.40
2019-03-08T00:08:36.374Z,11.40
2019-03-08T00:11:06.147Z,11.40
2019-03-08T00:13:35.595Z,11.40
2019-03-08T00:16:05.474Z,11.30
2019-03-08T00:18:34.903Z,11.20
2019-03-08T00:21:04.573Z,11.10
2019-03-08T00:23:34.326Z,11.10
2019-03-08T00:26:04.371Z,11.00
2019-03-08T00:28:33.890Z,11.00
2019-03-08T00:31:03.349Z,11.00
2019-03-08T00:33:32.794Z,11.00
2019-03-08T00:36:02.210Z,10.80
2019-03-08T00:38:31.647Z,10.80
2019-03-08T00:41:01.173Z,10.80
2019-03-08T00:43:30.569Z,10.80
2019-03-08T00:46:00.018Z,10.70
2019-03-08T00:48:29.466Z,10.60
2019-03-08T00:50:58.874Z,10.60
2019-03-08T00:53:28.271Z,10.50
2019-03-08T00:55:57.674Z,10.60
2019-03-08T00:58:27.031Z,10.50
2019-03-08T01:00:56.471Z,10.50
2019-03-08T01:03:25.789Z,10.40
2019-03-08T01:05:55.528Z,10.40
2019-03-08T01:08:24.879Z,10.40
2019-03-08T01:10:54.367Z,10.30
2019-03-08T01:13:23.782Z,10.30
2019-03-08T01:15:53.193Z,10.20
2019-03-08T01:18:22.654Z,10.10
2019-03-08T01:20:52.111Z,10.10
2019-03-08T01:23:21.544Z,10.00
2019-03-08T01:25:50.958Z,10.00
2019-03-08T01:28:20.297Z,10.00
2019-03-08T01:30:49.765Z,9.90
2019-03-08T01:33:19.719Z,9.90
2019-03-08T01:35:49.190Z,9.90
2019-03-08T01:38:18.630Z,9.90
2019-03-08T01:40:48.174Z,9.80
2019-03-08T01:43:17.609Z,9.70
2019-03-08T01:45:47.050Z,9.70
2019-03-08T01:48:16.508Z,9.70
2019-03-08T01:50:45.944Z,9.60
2019-03-08T01:53:15.354Z,9.50
2019-03-08T01:55:44.785Z,9.50
2019-03-08T01:58:14.150Z,9.40
2019-03-08T02:00:44.150Z,9.50
2019-03-08T02:03:13.787Z,9.50
2019-03-08T02:05:43.397Z,9.40
2019-03-08T02:08:12.774Z,9.40
2019-03-08T02:10:42.214Z,9.40
2019-03-08T02:13:11.578Z,9.40
2019-03-08T02:15:40.954Z,9.40
2019-03-08T02:18:10.422Z,9.50
2019-03-08T02:20:39.794Z,9.40
2019-03-08T02:23:09.126Z,9.40
2019-03-08T02:25:38.498Z,9.30
2019-03-08T02:28:08.662Z,9.20
2019-03-08T02:30:38.116Z,9.10
2019-03-08T02:33:07.571Z,9.10
2019-03-08T02:35:37.059Z,9.00
2019-03-08T02:38:06.475Z,8.90
2019-03-08T02:40:37.306Z,8.90
2019-03-08T02:43:11.947Z,8.80
2019-03-08T02:45:41.384Z,8.80
2019-03-08T02:48:10.783Z,8.80
2019-03-08T02:50:40.251Z,8.70
2019-03-08T02:53:09.702Z,8.70
2019-03-08T02:55:39.157Z,8.70
2019-03-08T02:58:08.554Z,8.60
2019-03-08T03:00:47.442Z,8.60
2019-03-08T03:03:17.735Z,8.50
2019-03-08T03:05:47.149Z,8.50
2019-03-08T03:08:16.606Z,8.40
2019-03-08T03:10:46.115Z,8.30
2019-03-08T03:13:15.566Z,8.30
2019-03-08T03:15:44.905Z,8.30
2019-03-08T03:18:14.401Z,8.20
2019-03-08T03:20:43.818Z,8.10
2019-03-08T03:23:13.324Z,8.10
2019-03-08T03:25:42.778Z,8.00
2019-03-08T03:28:12.279Z,7.90
2019-03-08T03:30:41.574Z,7.80
2019-03-08T03:33:10.980Z,7.80
2019-03-08T03:35:40.431Z,7.70
2019-03-08T03:38:09.942Z,7.70
2019-03-08T03:40:39.701Z,7.60
2019-03-08T03:43:09.076Z,7.60
2019-03-08T03:45:38.494Z,7.60
2019-03-08T03:48:08.167Z,7.50
2019-03-08T03:50:37.608Z,7.40
2019-03-08T03:53:07.086Z,7.40
2019-03-08T03:55:36.456Z,7.40
2019-03-08T03:58:05.868Z,7.30
2019-03-08T04:00:35.369Z,7.30
2019-03-08T04:03:08.721Z,7.30
2019-03-08T04:05:38.120Z,7.20
2019-03-08T04:08:07.518Z,7.20
2019-03-08T04:10:36.975Z,7.10
2019-03-08T04:13:06.418Z,7.10
2019-03-08T04:15:36.127Z,7.10
2019-03-08T04:18:05.604Z,7.10
2019-03-08T04:20:35.087Z,7.10
2019-03-08T04:23:04.437Z,7.10
2019-03-08T04:25:33.902Z,7.00
2019-03-08T04:28:03.652Z,7.00
2019-03-08T04:30:33.165Z,7.00
2019-03-08T04:33:02.559Z,7.00
2019-03-08T04:35:31.955Z,6.90
2019-03-08T04:38:01.430Z,6.90
2019-03-08T04:40:30.988Z,6.90
2019-03-08T04:43:00.402Z,6.90
2019-03-08T04:45:29.771Z,6.90
2019-03-08T04:47:59.296Z,7.00
2019-03-08T04:50:28.758Z,7.00
2019-03-08T04:52:58.302Z,6.90
2019-03-08T04:55:27.679Z,6.90
2019-03-08T04:57:57.121Z,6.80
2019-03-08T05:00:26.557Z,6.80
2019-03-08T05:02:55.986Z,6.90
2019-03-08T05:05:25.350Z,6.80
2019-03-08T05:07:54.862Z,6.80
2019-03-08T05:10:24.540Z,6.90
2019-03-08T05:12:53.911Z,6.90
2019-03-08T05:15:23.362Z,6.90
2019-03-08T05:17:52.766Z,6.90
2019-03-08T05:20:22.213Z,6.90
2019-03-08T05:22:51.675Z,6.90
2019-03-08T05:25:21.127Z,6.90
2019-03-08T05:27:50.750Z,6.90
2019-03-08T05:30:20.230Z,6.80
2019-03-08T05:32:49.687Z,6.80
2019-03-08T05:35:19.144Z,6.80
2019-03-08T05:37:49.002Z,6.80
2019-03-08T05:40:18.454Z,6.90
2019-03-08T05:42:47.913Z,6.90
2019-03-08T05:45:17.343Z,6.90
2019-03-08T05:47:46.759Z,7.00
2019-03-08T05:50:16.213Z,7.00
2019-03-08T05:52:45.926Z,7.00
2019-03-08T05:55:15.429Z,7.10
2019-03-08T05:57:44.869Z,7.10
2019-03-08T06:00:16.079Z,7.20
2019-03-08T06:02:45.647Z,7.30
2019-03-08T06:05:15.037Z,7.30
2019-03-08T06:07:44.498Z,7.30
2019-03-08T06:10:29.714Z,7.30
2019-03-08T06:12:59.177Z,7.40
2019-03-08T06:15:28.831Z,7.30
2019-03-08T06:17:58.476Z,7.40
2019-03-08T06:20:27.931Z,7.50
2019-03-08T06:22:57.394Z,7.50
2019-03-08T06:25:26.904Z,7.50
2019-03-08T06:27:56.472Z,7.50
2019-03-08T06:30:25.850Z,7.60
2019-03-08T06:32:55.472Z,7.60
2019-03-08T06:35:24.994Z,7.70
2019-03-08T06:37:54.363Z,7.80
2019-03-08T06:40:23.742Z,7.80
2019-03-08T06:42:53.214Z,7.90
2019-03-08T06:45:22.624Z,7.90
2019-03-08T06:47:51.997Z,8.10
2019-03-08T06:50:21.446Z,8.10
2019-03-08T06:52:50.860Z,8.20
2019-03-08T06:55:20.286Z,8.30
2019-03-08T06:57:58.326Z,8.30
2019-03-08T07:00:56.632Z,8.40
2019-03-08T07:03:26.054Z,8.50
2019-03-08T07:05:55.533Z,8.60
2019-03-08T07:08:25.346Z,8.80
2019-03-08T07:10:54.827Z,8.80
2019-03-08T07:13:24.289Z,8.80
2019-03-08T07:15:53.735Z,9.00
2019-03-08T07:18:23.163Z,9.10
2019-03-08T07:21:07.142Z,9.10
2019-03-08T07:23:58.244Z,9.20
2019-03-08T07:26:45.469Z,9.20
2019-03-08T07:29:32.588Z,9.40
2019-03-08T07:32:17.995Z,9.40
2019-03-08T07:34:53.411Z,9.50
2019-03-08T07:37:37.987Z,9.60
2019-03-08T07:40:33.202Z,9.60
2019-03-08T07:43:16.497Z,9.80
2019-03-08T07:46:10.926Z,9.90
2019-03-08T07:49:17.883Z,10.00
2019-03-08T07:52:08.190Z,10.10
2019-03-08T07:55:02.270Z,10.20
2019-03-08T07:57:56.694Z,10.20
2019-03-08T08:00:57.457Z,10.20
2019-03-08T08:03:48.876Z,10.30
2019-03-08T08:06:35.942Z,10.30
2019-03-08T08:09:27.088Z,10.40
2019-03-08T08:12:14.663Z,10.40
2019-03-08T08:15:03.253Z,10.50
2019-03-08T08:17:47.654Z,10.60
2019-03-08T08:20:32.018Z,10.50
2019-03-08T08:23:20.389Z,10.70
2019-03-08T08:26:08.862Z,10.80
2019-03-08T08:29:00.457Z,10.80
2019-03-08T08:31:47.779Z,10.90
2019-03-08T08:34:32.990Z,10.90
2019-03-08T08:37:18.861Z,11.00
2019-03-08T08:40:10.646Z,11.10
2019-03-08T08:42:59.013Z,11.20
2019-03-08T08:45:38.261Z,11.10
2019-03-08T08:48:16.001Z,11.40
2019-03-08T08:51:04.321Z,11.40
2019-03-08T08:53:55.760Z,11.40
2019-03-08T08:56:50.175Z,11.40
2019-03-08T08:59:25.862Z,11.40
2019-03-08T09:02:12.633Z,11.40
2019-03-08T09:05:10.199Z,11.40
2019-03-08T09:07:58.554Z,11.40
2019-03-08T09:11:05.221Z,11.50
2019-03-08T09:13:57.500Z,11.60
2019-03-08T09:16:41.270Z,11.60
2019-03-08T09:19:32.370Z,11.60
2019-03-08T09:22:20.764Z,11.80
2019-03-08T09:25:21.444Z,11.80
2019-03-08T09:28:13.085Z,11.80
2019-03-08T09:30:58.426Z,11.80
2019-03-08T09:33:56.243Z,11.80
2019-03-08T09:36:35.631Z,11.90
2019-03-08T09:39:14.648Z,11.80
2019-03-08T09:42:03.053Z,12.10
2019-03-08T09:45:09.531Z,12.10
2019-03-08T09:48:10.269Z,11.90
2019-03-08T09:50:49.615Z,11.80
2019-03-08T09:53:27.658Z,12.10
2019-03-08T09:56:17.588Z,12.00
2019-03-08T09:59:05.063Z,12.00
2019-03-08T10:01:53.069Z,12.10
2019-03-08T10:04:33.361Z,12.10
2019-03-08T10:07:21.823Z,12.10
2019-03-08T10:10:08.206Z,11.90
2019-03-08T10:12:59.653Z,11.80
2019-03-08T10:15:35.017Z,11.80
2019-03-08T10:18:32.633Z,11.90
2019-03-08T10:21:17.346Z,11.90
2019-03-08T10:24:16.586Z,11.90
2019-03-08T10:27:11.154Z,12.20
2019-03-08T10:30:05.857Z,12.40
2019-03-08T10:32:53.476Z,12.60
2019-03-08T10:35:33.259Z,12.90
2019-03-08T10:38:34.751Z,12.90
2019-03-08T10:41:10.560Z,12.70
2019-03-08T10:43:48.307Z,12.90
2019-03-08T10:46:36.640Z,13.10
2019-03-08T10:49:27.557Z,12.60
2019-03-08T10:52:17.622Z,12.70
2019-03-08T10:55:13.533Z,12.50
2019-03-08T10:58:07.699Z,12.30
2019-03-08T11:01:05.348Z,12.60
2019-03-08T11:03:56.462Z,12.50
2019-03-08T11:06:44.914Z,12.60
2019-03-08T11:09:36.653Z,12.70
2019-03-08T11:12:23.750Z,12.70
2019-03-08T11:15:03.194Z,12.50
2019-03-08T11:18:00.997Z,12.50
2019-03-08T11:20:48.510Z,12.60
2019-03-08T11:23:37.264Z,12.80
2019-03-08T11:26:31.689Z,12.90
2019-03-08T11:29:09.182Z,12.80
2019-03-08T11:32:08.130Z,12.90
2019-03-08T11:34:51.943Z,12.70
2019-03-08T11:37:28.794Z,12.60
2019-03-08T11:40:04.427Z,12.50
2019-03-08T11:42:53.381Z,12.50
2019-03-08T11:45:47.915Z,12.40
2019-03-08T11:48:34.980Z,12.50
2019-03-08T11:51:35.414Z,12.50
2019-03-08T11:54:23.042Z,12.50
2019-03-08T11:57:11.431Z,12.60
2019-03-08T11:59:59.773Z,12.60
2019-03-08T12:02:46.763Z,12.60
2019-03-08T12:05:35.122Z,12.50
2019-03-08T12:08:21.101Z,12.50
2019-03-08T12:11:30.404Z,12.40
2019-03-08T12:14:18.846Z,12.40
2019-03-08T12:17:06.230Z,12.30
2019-03-08T12:19:44.683Z,12.30
2019-03-08T12:22:23.375Z,12.30
2019-03-08T12:25:06.766Z,12.20
2019-03-08T12:28:01.334Z,12.20
2019-03-08T12:30:40.568Z,12.20
2019-03-08T12:33:44.468Z,12.20
2019-03-08T12:36:30.758Z,12.20
2019-03-08T12:39:21.923Z,12.20
2019-03-08T12:41:59.458Z,12.20
2019-03-08T12:44:58.187Z,12.20
2019-03-08T12:47:45.358Z,12.10
2019-03-08T12:50:36.808Z,12.10
2019-03-08T12:53:32.769Z,12.10
2019-03-08T12:56:16.593Z,12.00
2019-03-08T12:59:00.286Z,11.90
2019-03-08T13:02:03.799Z,11.90
2019-03-08T13:04:51.262Z,12.00
2019-03-08T13:07:45.448Z,12.00
2019-03-08T13:10:15.266Z,12.10
2019-03-08T13:12:44.947Z,12.20
2019-03-08T13:15:15.002Z,12.20
2019-03-08T13:17:44.494Z,12.30
2019-03-08T13:20:16.174Z,12.40
2019-03-08T13:22:45.677Z,12.40
2019-03-08T13:25:15.438Z,12.70
2019-03-08T13:27:44.965Z,13.20
2019-03-08T13:30:17.102Z,13.20
2019-03-08T13:32:47.863Z,13.10
2019-03-08T13:35:17.519Z,12.90
2019-03-08T13:37:46.984Z,13.00
2019-03-08T13:40:16.742Z,12.50
2019-03-08T13:42:46.213Z,12.30
2019-03-08T13:45:16.642Z,12.30
2019-03-08T13:47:46.091Z,12.20
2019-03-08T13:50:15.814Z,12.20
2019-03-08T13:52:45.582Z,12.20
2019-03-08T13:55:16.324Z,12.10
2019-03-08T13:57:45.748Z,12.00
2019-03-08T14:00:16.042Z,12.00
2019-03-08T14:02:45.518Z,12.00
2019-03-08T14:05:15.226Z,12.00
2019-03-08T14:07:44.761Z,12.00
2019-03-08T14:10:15.510Z,12.00
2019-03-08T14:12:44.914Z,12.00
2019-03-08T14:15:14.363Z,12.10
2019-03-08T14:17:43.772Z,12.00
2019-03-08T14:20:15.836Z,12.00
2019-03-08T14:22:45.179Z,12.00
2019-03-08T14:25:14.591Z,12.00
2019-03-08T14:27:43.988Z,12.10
2019-03-08T14:30:15.792Z,12.00
2019-03-08T14:32:45.376Z,12.00
2019-03-08T14:35:14.899Z,12.00
2019-03-08T14:37:44.256Z,12.00
2019-03-08T14:40:24.731Z,11.90
2019-03-08T14:43:02.698Z,11.80
2019-03-08T14:45:59.953Z,11.80
2019-03-08T14:48:29.369Z,11.80
2019-03-08T14:50:59.137Z,11.80
2019-03-08T14:53:32.610Z,11.70
2019-03-08T14:55:59.980Z,11.70
2019-03-08T14:58:32.452Z,11.70
2019-03-08T15:01:02.210Z,11.60
2019-03-08T15:03:31.968Z,11.70
2019-03-08T15:06:01.371Z,11.70
2019-03-08T15:08:30.818Z,11.70
2019-03-08T15:11:00.707Z,11.80
2019-03-08T15:13:30.194Z,11.70
2019-03-08T15:16:02.117Z,11.70
2019-03-08T15:18:31.247Z,11.70
2019-03-08T15:21:00.822Z,11.60
2019-03-08T15:23:30.183Z,11.80
2019-03-08T15:25:59.522Z,11.80
2019-03-08T15:28:29.306Z,11.70
2019-03-08T15:30:58.735Z,11.60
2019-03-08T15:33:28.057Z,11.60
2019-03-08T15:35:57.489Z,11.50
2019-03-08T15:38:26.934Z,11.40
2019-03-08T15:40:56.618Z,11.40
2019-03-08T15:43:26.003Z,11.30
2019-03-08T15:45:55.342Z,11.30
2019-03-08T15:48:24.653Z,11.30
2019-03-08T15:50:54.106Z,11.20
2019-03-08T15:53:23.493Z,11.20
2019-03-08T15:55:53.438Z,11.20
2019-03-08T15:58:23.554Z,11.20
2019-03-08T16:00:52.929Z,11.20
2019-03-08T16:03:22.383Z,11.20
2019-03-08T16:05:51.705Z,11.20
2019-03-08T16:08:21.040Z,11.10
2019-03-08T16:10:50.409Z,11.10
2019-03-08T16:13:19.789Z,11.10
2019-03-08T16:15:49.197Z,10.80
2019-03-08T16:18:18.663Z,10.20
2019-03-08T16:20:48.006Z,9.70
2019-03-08T16:23:17.396Z,9.50
2019-03-08T16:25:48.554Z,9.40
2019-03-08T16:28:17.988Z,9.50
2019-03-08T16:30:50.594Z,9.50
2019-03-08T16:33:24.466Z,9.50
2019-03-08T16:36:14.245Z,9.50
2019-03-08T16:39:05.522Z,9.50
2019-03-08T16:41:47.944Z,9.50
2019-03-08T16:44:54.472Z,9.60
2019-03-08T16:47:30.723Z,9.60
2019-03-08T16:50:25.959Z,9.60
2019-03-08T16:53:21.319Z,9.60
2019-03-08T16:56:06.614Z,9.70
2019-03-08T16:59:03.807Z,9.70
2019-03-08T17:01:43.949Z,9.70
2019-03-08T17:04:35.365Z,9.70
2019-03-08T17:07:30.550Z,9.60
2019-03-08T17:10:08.615Z,9.30
2019-03-08T17:12:56.995Z,9.10
2019-03-08T17:15:37.789Z,9.00
2019-03-08T17:18:16.766Z,8.90
2019-03-08T17:21:07.406Z,8.90
2019-03-08T17:24:01.662Z,8.90
2019-03-08T17:26:37.457Z,8.90
2019-03-08T17:29:17.758Z,8.90
2019-03-08T17:31:52.536Z,8.90
2019-03-08T17:34:46.270Z,8.90
2019-03-08T17:37:23.798Z,8.80
2019-03-08T17:40:02.055Z,8.80
2019-03-08T17:43:08.588Z,8.80
2019-03-08T17:45:56.002Z,8.80
2019-03-08T17:48:50.242Z,8.80
2019-03-08T17:51:53.917Z,8.80
2019-03-08T17:54:41.214Z,8.80
2019-03-08T17:57:41.835Z,8.80
2019-03-08T18:00:35.002Z,8.80
2019-03-08T18:03:16.942Z,8.70
2019-03-08T18:06:01.270Z,8.70
2019-03-08T18:08:52.743Z,8.70
2019-03-08T18:11:32.836Z,8.60
2019-03-08T18:14:21.276Z,8.60
2019-03-08T18:17:16.030Z,8.60
2019-03-08T18:20:07.751Z,8.60
2019-03-08T18:22:47.475Z,8.50
2019-03-08T18:25:34.051Z,8.50
2019-03-08T18:28:40.662Z,8.50
2019-03-08T18:31:38.014Z,8.50
2019-03-08T18:34:34.891Z,8.40
2019-03-08T18:37:15.635Z,8.40
2019-03-08T18:40:06.750Z,8.30
2019-03-08T18:42:45.887Z,8.30
2019-03-08T18:45:37.272Z,8.30
2019-03-08T18:48:15.862Z,8.20
2019-03-08T18:51:02.838Z,8.20
2019-03-08T18:53:39.298Z,8.20
2019-03-08T18:56:46.142Z,8.20
2019-03-08T18:59:40.179Z,8.20
2019-03-08T19:02:30.598Z,8.20
2019-03-08T19:05:08.348Z,8.10
2019-03-08T19:07:47.393Z,8.10
2019-03-08T19:10:24.866Z,8.10
2019-03-08T19:13:06.396Z,8.10
2019-03-08T19:15:52.363Z,8.00
2019-03-08T19:18:44.221Z,8.00
2019-03-08T19:21:44.550Z,8.00
2019-03-08T19:24:38.366Z,8.00
2019-03-08T19:27:32.920Z,7.90
2019-03-08T19:30:24.418Z,7.80
2019-03-08T19:33:03.310Z,7.80
2019-03-08T19:35:57.762Z,7.80
2019-03-08T19:38:58.304Z,7.80
2019-03-08T19:41:46.694Z,7.70
2019-03-08T19:44:30.066Z,7.70
2019-03-08T19:47:27.686Z,7.70
2019-03-08T19:50:05.718Z,7.70
2019-03-08T19:52:52.687Z,7.70
2019-03-08T19:55:43.796Z,7.60
2019-03-08T19:58:32.162Z,7.60
2019-03-08T20:01:18.543Z,7.50
2019-03-08T20:04:05.760Z,7.50
2019-03-08T20:07:09.243Z,7.50
2019-03-08T20:09:49.776Z,7.50
2019-03-08T20:12:33.902Z,7.50
2019-03-08T20:15:17.574Z,7.40
2019-03-08T20:18:04.501Z,7.40
2019-03-08T20:20:40.731Z,7.30
2019-03-08T20:23:31.345Z,7.30
2019-03-08T20:26:18.314Z,7.30
2019-03-08T20:28:56.504Z,7.30
2019-03-08T20:31:43.479Z,7.20
2019-03-08T20:34:41.298Z,7.20
2019-03-08T20:37:29.570Z,7.20
2019-03-08T20:40:22.494Z,7.20
2019-03-08T20:42:56.251Z,7.10
2019-03-08T20:45:42.600Z,7.10
2019-03-08T20:48:14.032Z,7.00
2019-03-08T20:50:45.455Z,7.00
2019-03-08T20:53:14.846Z,6.90
2019-03-08T20:55:44.663Z,6.90
2019-03-08T20:58:14.017Z,6.90
2019-03-08T21:00:43.383Z,6.90
2019-03-08T21:03:12.779Z,6.90
2019-03-08T21:05:42.234Z,6.90
2019-03-08T21:08:11.942Z,6.80
2019-03-08T21:10:41.378Z,6.80
2019-03-08T21:13:10.726Z,6.80
2019-03-08T21:15:40.122Z,6.80
2019-03-08T21:18:12.115Z,6.80
2019-03-08T21:20:41.815Z,6.80
2019-03-08T21:23:11.295Z,6.70
2019-03-08T21:25:40.691Z,6.70
2019-03-08T21:28:10.067Z,6.70
2019-03-08T21:30:39.518Z,6.70
2019-03-08T21:33:08.932Z,6.60
2019-03-08T21:35:38.258Z,6.50
2019-03-08T21:38:07.638Z,6.50
2019-03-08T21:40:36.963Z,6.60
2019-03-08T21:43:06.370Z,6.50
2019-03-08T21:45:35.741Z,6.50
2019-03-08T21:48:05.175Z,6.40
2019-03-08T21:50:34.697Z,6.40
2019-03-08T21:53:04.089Z,6.40
2019-03-08T21:55:33.515Z,6.30
2019-03-08T21:58:02.962Z,6.30
2019-03-08T22:00:32.391Z,6.30
2019-03-08T22:03:01.794Z,6.20
2019-03-08T22:05:33.617Z,6.20
2019-03-08T22:08:03.071Z,6.10
2019-03-08T22:10:54.914Z,6.10
2019-03-08T22:13:24.291Z,6.10
2019-03-08T22:15:53.614Z,6.00
2019-03-08T22:18:22.976Z,6.00
2019-03-08T22:20:52.763Z,5.90
2019-03-08T22:23:22.096Z,6.00
2019-03-08T22:25:51.547Z,5.90
2019-03-08T22:28:21.047Z,6.00
2019-03-08T22:30:50.474Z,5.90
2019-03-08T22:33:20.217Z,5.90
2019-03-08T22:35:49.677Z,5.90
2019-03-08T22:38:19.002Z,5.90
2019-03-08T22:40:48.381Z,5.80
2019-03-08T22:43:17.816Z,5.80
2019-03-08T22:45:47.219Z,5.80
2019-03-08T22:48:16.554Z,5.80
2019-03-08T22:50:45.919Z,5.70
2019-03-08T22:53:15.376Z,5.70
2019-03-08T22:55:44.823Z,5.70
2019-03-08T22:58:14.351Z,5.60
2019-03-08T23:01:02.946Z,5.60
2019-03-08T23:03:32.558Z,5.50
2019-03-08T23:06:01.926Z,5.60
2019-03-08T23:08:31.792Z,5.50
2019-03-08T23:11:01.238Z,5.50
2019-03-08T23:13:30.626Z,5.50
2019-03-08T23:16:00.068Z,5.40
2019-03-08T23:18:29.521Z,5.40
2019-03-08T23:20:59.174Z,5.40
2019-03-08T23:23:28.626Z,5.40
2019-03-08T23:25:57.961Z,5.30
2019-03-08T23:28:46.286Z,5.30
2019-03-08T23:31:52.869Z,5.20
2019-03-08T23:34:22.231Z,5.20
2019-03-08T23:36:51.767Z,5.10
2019-03-08T23:39:21.078Z,5.10
2019-03-08T23:41:50.409Z,5.10
2019-03-08T23:44:19.799Z,5.00
2019-03-08T23:46:49.251Z,5.00
2019-03-08T23:49:19.027Z,4.90
2019-03-08T23:51:48.510Z,4.90
2019-03-08T23:54:17.867Z,4.90
2019-03-08T23:56:47.160Z,4.80
2019-03-08T23:59:16.646Z,4.80
